My Meet Scores
Brynn Lange, Phenom Gymnastics - MyMeetScores.com
Top100 | Top Teams | Upcoming Meets | Completed Meets | Latest | Add Scores | Help| Support | Bookmark and Share

Brynn Lange, Phenom Gymnastics
Personal Bests
LevelVault BarsBeamFloorAA
39.9009.850 9.7759.80039.050
49.5509.700 9.7509.67538.550
59.4509.700 9.8009.32537.625
XB9.5509.725 9.6259.50038.100
Scores on America's Top 100as of 10.20.2021
Year Level Vault Bars Beam Floor AA
2019 39.9009.85039.050
2020 438.550
2020 59.70037.275
2021 59.800

Click here to view our exclusive Top 100 Collection
Meet Scores
Date Meet Team Session Level Division Vault Bars Beam Floor AA
2021-03-18 Level 5 & Xcel Gold State Phenom Gymnastics 3 5 Sr C 9.450 7 9.275 10 9.125 8 9.325 7 37.175 5
2021-02-26 Kinetic Classic 2021 Phenom Gymnastics 11 5 Older 9.100 10T 9.400 5T 9.800 1 9.325 3T 37.625 2
2021-02-12 Super Girl Invite Phenom Gymnastics 2 5 Older 9.300 5T 9.400 4T 9.400 2 8.900 9T 37.000 3
2021-01-21 King Arthur Invitational Phenom Gymnastics 6 5 SR 9.075 6 9.100 7 9.300 2 9.100 5 36.575 2
2021-01-14 2021 Bravo Classic Phenom Gymnastics 17 5 Sr 8.875 7 9.200 8 8.700 12T 9.000 8T 35.775 8
2020-12-11 Crossroad Classic 2020 Phenom Gymnastics 6 5 Senior 9.200 1T 9.700 1 9.525 1 8.850 2 37.275 1
2020-03-06 Illinois Level 4 State Championships Phenom Gymnastics 6 4 Sr C 9.550 1 9.700 2* 9.675 4* 9.625 3 38.550 1T
2020-02-21 Kinetic Classic Phenom Gymnastics 07 4 Older 9.375 2T 9.625 5T 9.475 4T 9.675 2 38.150 1
2020-02-14 Big Classic Phenom Gymnastics 6B 4 Child D 9.475 6T 9.700 1 9.225 20T 9.500 3T 37.900 1T
2020-01-31 Big Chill Phenom Gymnastics 2 4 11+ 8.825 2 9.450 2 9.675 1T 9.325 2 37.275 2
2020-01-17 2020 Bravo Classic Phenom Gymnastics 10B 4 Sr 9.350 1 9.550 4T 9.750 1 9.350 2 38.000 1
2019-12-20 Aspire Classic - 2019 Phenom Gymnastics 8A 4 Older 9.050 2T 9.500 3 9.550 5T 9.525 1T 37.625 1
2019-12-13 MEGA Magic Classic 2019 Phenom Gymnastics 3B 4 Sr A 9.400 1 9.400 2T 8.500 12T 9.250 2 36.550 1
2019-03-08 2019 Illinois Level 3 State Championship Phenom Gymnastics 1 3 Sr C 9.500 6T 9.850 1 9.450 2 9.750 1 38.550 1
2019-02-23 Kinetic Classic 2019 Phenom Gymnastics 1 3 Older 9.375 7 9.500 5T 9.000 32 9.375 7 37.250 5
2019-02-15 Big ClassicBIG CLASSIC Phenom Gymnastics 3A 3 Child E 9.150 7 9.450 1T 9.350 2 9.525 2 37.475 2
2019-01-25 King Arthur Invitational Phenom Gymnastics 8 3 SR B 9.900 1 9.725 3 9.775 1 9.650 1 39.050 1
2019-01-18 2019 Bravo Classic Phenom Gymnastics 8B 3 Sr 9.325 5 9.400 5 9.300 4 9.450 3 37.475 3
2018-12-14 2018 Aspire Classic Phenom Gymnastics 2 3 Sr B 9.575 1 9.800 1 9.000 11 9.800 1 38.175 2
2018-12-07 Horton Invite Phenom Gymnastics All 3 Sr A 9.675 1 9.525 2 9.150 8 9.675 2 38.025 2
2018-02-01 The Big Chill Phenom Gymnastics 3 XB 9 Under 9.550 1 9.600 1 9.575 1 9.375 1 38.100 1
2018-01-19 2018 Bravo Classic Phenom Gymnastics 4B XB Jr 9.075 5 9.500 4T 9.625 1T 9.500 1 37.700 2
2017-12-15 2017 Aspire Classic Phenom Gymnastics 9B XB All 9.225 4 9.725 1 8.800 6T 9.475 5 37.225 3
2017-10-28 Twist N Turn Phenom Gymnastics 5 XB All Ages 8.900 6 9.400 1T 8.575 10 9.300 2 36.175 3
Get your scores on
a t-shirt, pin, or hoodie